sensor_id;sensor_type;location;lat;lon;timestamp;P1;durP1;ratioP1;P2;durP2;ratioP2
43150;SDS011;28755;51.478;5.702;2024-02-28T00:01:36;49.50;;;25.02;;
43150;SDS011;28755;51.478;5.702;2024-02-28T00:04:02;43.95;;;24.42;;
43150;SDS011;28755;51.478;5.702;2024-02-28T00:06:28;55.38;;;26.42;;
43150;SDS011;28755;51.478;5.702;2024-02-28T00:08:53;50.03;;;24.45;;
43150;SDS011;28755;51.478;5.702;2024-02-28T00:11:20;46.22;;;24.17;;
43150;SDS011;28755;51.478;5.702;2024-02-28T00:13:45;53.15;;;26.33;;
43150;SDS011;28755;51.478;5.702;2024-02-28T00:16:11;49.85;;;26.30;;
43150;SDS011;28755;51.478;5.702;2024-02-28T00:18:37;47.78;;;25.48;;
43150;SDS011;28755;51.478;5.702;2024-02-28T00:21:03;50.45;;;26.33;;
43150;SDS011;28755;51.478;5.702;2024-02-28T00:23:29;48.47;;;24.98;;
43150;SDS011;28755;51.478;5.702;2024-02-28T00:25:54;47.58;;;24.83;;
43150;SDS011;28755;51.478;5.702;2024-02-28T00:28:20;57.05;;;25.55;;
43150;SDS011;28755;51.478;5.702;2024-02-28T00:30:46;53.20;;;26.52;;
43150;SDS011;28755;51.478;5.702;2024-02-28T00:33:11;53.53;;;26.00;;
43150;SDS011;28755;51.478;5.702;2024-02-28T00:35:39;47.80;;;25.15;;
43150;SDS011;28755;51.478;5.702;2024-02-28T00:38:05;51.90;;;26.05;;
43150;SDS011;28755;51.478;5.702;2024-02-28T00:40:30;52.10;;;26.20;;
43150;SDS011;28755;51.478;5.702;2024-02-28T00:42:56;53.47;;;26.02;;
43150;SDS011;28755;51.478;5.702;2024-02-28T00:45:22;49.55;;;25.75;;
43150;SDS011;28755;51.478;5.702;2024-02-28T00:47:48;49.83;;;26.33;;
43150;SDS011;28755;51.478;5.702;2024-02-28T00:50:14;52.10;;;26.27;;
43150;SDS011;28755;51.478;5.702;2024-02-28T00:52:39;52.40;;;26.80;;
43150;SDS011;28755;51.478;5.702;2024-02-28T00:55:05;57.38;;;27.80;;
43150;SDS011;28755;51.478;5.702;2024-02-28T00:57:31;55.72;;;26.60;;
43150;SDS011;28755;51.478;5.702;2024-02-28T00:59:57;58.92;;;29.40;;
43150;SDS011;28755;51.478;5.702;2024-02-28T01:02:22;54.17;;;28.77;;
43150;SDS011;28755;51.478;5.702;2024-02-28T01:04:48;62.13;;;29.95;;
43150;SDS011;28755;51.478;5.702;2024-02-28T01:07:13;55.13;;;28.63;;
43150;SDS011;28755;51.478;5.702;2024-02-28T01:09:39;62.50;;;30.20;;
43150;SDS011;28755;51.478;5.702;2024-02-28T01:12:05;68.50;;;30.50;;
43150;SDS011;28755;51.478;5.702;2024-02-28T01:14:30;61.42;;;30.30;;
43150;SDS011;28755;51.478;5.702;2024-02-28T01:16:56;61.35;;;31.00;;
43150;SDS011;28755;51.478;5.702;2024-02-28T01:19:22;60.15;;;30.17;;
43150;SDS011;28755;51.478;5.702;2024-02-28T01:21:47;59.45;;;30.73;;
43150;SDS011;28755;51.478;5.702;2024-02-28T01:24:13;69.53;;;32.33;;
43150;SDS011;28755;51.478;5.702;2024-02-28T01:26:39;68.28;;;32.65;;
43150;SDS011;28755;51.478;5.702;2024-02-28T01:29:05;58.55;;;32.05;;
43150;SDS011;28755;51.478;5.702;2024-02-28T01:31:31;65.55;;;31.40;;
43150;SDS011;28755;51.478;5.702;2024-02-28T01:33:56;62.67;;;31.58;;
43150;SDS011;28755;51.478;5.702;2024-02-28T01:36:22;64.90;;;31.40;;
43150;SDS011;28755;51.478;5.702;2024-02-28T01:38:48;65.68;;;31.77;;
43150;SDS011;28755;51.478;5.702;2024-02-28T01:41:14;65.00;;;31.90;;
43150;SDS011;28755;51.478;5.702;2024-02-28T01:43:40;71.80;;;33.30;;
43150;SDS011;28755;51.478;5.702;2024-02-28T01:46:17;61.50;;;30.52;;
43150;SDS011;28755;51.478;5.702;2024-02-28T01:48:47;66.07;;;32.25;;
43150;SDS011;28755;51.478;5.702;2024-02-28T01:51:13;69.43;;;33.67;;
43150;SDS011;28755;51.478;5.702;2024-02-28T01:53:38;64.55;;;32.80;;
43150;SDS011;28755;51.478;5.702;2024-02-28T01:56:04;70.00;;;33.65;;
43150;SDS011;28755;51.478;5.702;2024-02-28T01:58:31;65.25;;;33.78;;
43150;SDS011;28755;51.478;5.702;2024-02-28T02:00:57;68.13;;;32.22;;
43150;SDS011;28755;51.478;5.702;2024-02-28T02:03:25;68.10;;;32.20;;
43150;SDS011;28755;51.478;5.702;2024-02-28T02:05:51;62.78;;;31.65;;
43150;SDS011;28755;51.478;5.702;2024-02-28T02:08:16;63.13;;;32.13;;
43150;SDS011;28755;51.478;5.702;2024-02-28T02:10:42;60.15;;;30.77;;
43150;SDS011;28755;51.478;5.702;2024-02-28T02:13:08;70.82;;;31.67;;
43150;SDS011;28755;51.478;5.702;2024-02-28T02:15:34;65.30;;;31.83;;
43150;SDS011;28755;51.478;5.702;2024-02-28T02:17:59;62.50;;;31.08;;
43150;SDS011;28755;51.478;5.702;2024-02-28T02:20:25;61.92;;;31.50;;
43150;SDS011;28755;51.478;5.702;2024-02-28T02:22:54;69.80;;;32.47;;
43150;SDS011;28755;51.478;5.702;2024-02-28T02:25:20;59.85;;;30.95;;
43150;SDS011;28755;51.478;5.702;2024-02-28T02:27:46;66.28;;;31.90;;
43150;SDS011;28755;51.478;5.702;2024-02-28T02:30:12;66.88;;;31.30;;
43150;SDS011;28755;51.478;5.702;2024-02-28T02:32:38;67.40;;;32.58;;
43150;SDS011;28755;51.478;5.702;2024-02-28T02:35:03;66.05;;;33.28;;
43150;SDS011;28755;51.478;5.702;2024-02-28T02:37:29;65.82;;;31.83;;
43150;SDS011;28755;51.478;5.702;2024-02-28T02:39:55;72.28;;;32.92;;
43150;SDS011;28755;51.478;5.702;2024-02-28T02:42:20;87.13;;;33.55;;
43150;SDS011;28755;51.478;5.702;2024-02-28T02:44:46;118.90;;;32.40;;
43150;SDS011;28755;51.478;5.702;2024-02-28T02:47:11;170.02;;;32.63;;
43150;SDS011;28755;51.478;5.702;2024-02-28T02:49:37;101.80;;;31.38;;
43150;SDS011;28755;51.478;5.702;2024-02-28T02:52:03;152.02;;;32.97;;
43150;SDS011;28755;51.478;5.702;2024-02-28T02:54:28;100.80;;;30.15;;
43150;SDS011;28755;51.478;5.702;2024-02-28T02:56:54;71.47;;;31.35;;
43150;SDS011;28755;51.478;5.702;2024-02-28T02:59:20;77.95;;;31.98;;
43150;SDS011;28755;51.478;5.702;2024-02-28T03:01:47;124.78;;;30.55;;
43150;SDS011;28755;51.478;5.702;2024-02-28T03:04:14;88.50;;;31.13;;
43150;SDS011;28755;51.478;5.702;2024-02-28T03:06:40;81.32;;;32.97;;
43150;SDS011;28755;51.478;5.702;2024-02-28T03:09:05;67.65;;;31.60;;
43150;SDS011;28755;51.478;5.702;2024-02-28T03:11:32;93.00;;;31.42;;
43150;SDS011;28755;51.478;5.702;2024-02-28T03:14:00;94.88;;;33.55;;
43150;SDS011;28755;51.478;5.702;2024-02-28T03:16:25;68.05;;;32.70;;
43150;SDS011;28755;51.478;5.702;2024-02-28T03:18:51;69.03;;;33.22;;
43150;SDS011;28755;51.478;5.702;2024-02-28T03:21:17;69.80;;;34.00;;
43150;SDS011;28755;51.478;5.702;2024-02-28T03:23:42;90.43;;;32.80;;
43150;SDS011;28755;51.478;5.702;2024-02-28T03:26:08;128.70;;;34.45;;
43150;SDS011;28755;51.478;5.702;2024-02-28T03:28:34;60.95;;;33.70;;
43150;SDS011;28755;51.478;5.702;2024-02-28T03:30:59;68.07;;;34.58;;
43150;SDS011;28755;51.478;5.702;2024-02-28T03:33:25;86.75;;;35.35;;
43150;SDS011;28755;51.478;5.702;2024-02-28T03:35:50;72.38;;;34.20;;
43150;SDS011;28755;51.478;5.702;2024-02-28T03:38:16;75.50;;;34.70;;
43150;SDS011;28755;51.478;5.702;2024-02-28T03:40:42;83.32;;;36.03;;
43150;SDS011;28755;51.478;5.702;2024-02-28T03:43:07;67.78;;;34.60;;
43150;SDS011;28755;51.478;5.702;2024-02-28T03:45:37;77.78;;;34.67;;
43150;SDS011;28755;51.478;5.702;2024-02-28T03:48:06;90.50;;;36.38;;
43150;SDS011;28755;51.478;5.702;2024-02-28T03:50:32;84.25;;;36.03;;
43150;SDS011;28755;51.478;5.702;2024-02-28T03:52:57;71.53;;;36.78;;
43150;SDS011;28755;51.478;5.702;2024-02-28T03:55:23;73.22;;;35.13;;
43150;SDS011;28755;51.478;5.702;2024-02-28T03:57:49;91.28;;;35.75;;
43150;SDS011;28755;51.478;5.702;2024-02-28T04:00:16;85.50;;;36.95;;
43150;SDS011;28755;51.478;5.702;2024-02-28T04:02:42;170.02;;;37.25;;
43150;SDS011;28755;51.478;5.702;2024-02-28T04:05:08;74.85;;;36.70;;
43150;SDS011;28755;51.478;5.702;2024-02-28T04:07:33;131.23;;;36.35;;
43150;SDS011;28755;51.478;5.702;2024-02-28T04:09:59;103.63;;;38.10;;
43150;SDS011;28755;51.478;5.702;2024-02-28T04:12:24;86.78;;;37.60;;
43150;SDS011;28755;51.478;5.702;2024-02-28T04:14:50;86.05;;;37.53;;
43150;SDS011;28755;51.478;5.702;2024-02-28T04:17:16;96.40;;;38.35;;
43150;SDS011;28755;51.478;5.702;2024-02-28T04:19:41;117.75;;;39.85;;
43150;SDS011;28755;51.478;5.702;2024-02-28T04:22:07;114.97;;;40.25;;
43150;SDS011;28755;51.478;5.702;2024-02-28T04:24:32;126.28;;;39.20;;
43150;SDS011;28755;51.478;5.702;2024-02-28T04:26:58;105.53;;;37.75;;
43150;SDS011;28755;51.478;5.702;2024-02-28T04:29:24;98.32;;;40.35;;
43150;SDS011;28755;51.478;5.702;2024-02-28T04:31:50;101.63;;;41.58;;
43150;SDS011;28755;51.478;5.702;2024-02-28T04:34:16;86.47;;;40.40;;
43150;SDS011;28755;51.478;5.702;2024-02-28T04:36:41;120.20;;;42.17;;
43150;SDS011;28755;51.478;5.702;2024-02-28T04:39:07;109.72;;;41.53;;
43150;SDS011;28755;51.478;5.702;2024-02-28T04:41:33;128.07;;;43.75;;
43150;SDS011;28755;51.478;5.702;2024-02-28T04:43:59;129.35;;;44.25;;
43150;SDS011;28755;51.478;5.702;2024-02-28T04:46:25;120.18;;;42.72;;
43150;SDS011;28755;51.478;5.702;2024-02-28T04:48:50;129.60;;;44.13;;
43150;SDS011;28755;51.478;5.702;2024-02-28T04:51:16;148.13;;;42.38;;
43150;SDS011;28755;51.478;5.702;2024-02-28T04:53:44;186.82;;;44.60;;
43150;SDS011;28755;51.478;5.702;2024-02-28T04:56:10;147.02;;;43.78;;
43150;SDS011;28755;51.478;5.702;2024-02-28T04:58:36;150.52;;;41.40;;
43150;SDS011;28755;51.478;5.702;2024-02-28T05:01:01;139.52;;;42.05;;
43150;SDS011;28755;51.478;5.702;2024-02-28T05:03:28;140.50;;;41.70;;
43150;SDS011;28755;51.478;5.702;2024-02-28T05:05:54;104.22;;;41.28;;
43150;SDS011;28755;51.478;5.702;2024-02-28T05:08:19;121.55;;;41.55;;
43150;SDS011;28755;51.478;5.702;2024-02-28T05:10:46;104.45;;;41.78;;
43150;SDS011;28755;51.478;5.702;2024-02-28T05:13:11;114.05;;;41.75;;
43150;SDS011;28755;51.478;5.702;2024-02-28T05:15:37;104.85;;;42.72;;
43150;SDS011;28755;51.478;5.702;2024-02-28T05:18:03;107.60;;;39.55;;
43150;SDS011;28755;51.478;5.702;2024-02-28T05:20:29;150.82;;;40.92;;
43150;SDS011;28755;51.478;5.702;2024-02-28T05:22:54;160.07;;;42.20;;
43150;SDS011;28755;51.478;5.702;2024-02-28T05:25:20;130.27;;;42.88;;
43150;SDS011;28755;51.478;5.702;2024-02-28T05:27:45;118.22;;;43.15;;
43150;SDS011;28755;51.478;5.702;2024-02-28T05:30:11;123.18;;;43.53;;
43150;SDS011;28755;51.478;5.702;2024-02-28T05:32:37;121.22;;;43.72;;
43150;SDS011;28755;51.478;5.702;2024-02-28T05:35:03;106.60;;;43.45;;
43150;SDS011;28755;51.478;5.702;2024-02-28T05:37:28;113.80;;;45.88;;
43150;SDS011;28755;51.478;5.702;2024-02-28T05:39:54;108.65;;;44.10;;
43150;SDS011;28755;51.478;5.702;2024-02-28T05:42:19;104.22;;;44.08;;
43150;SDS011;28755;51.478;5.702;2024-02-28T05:44:49;113.13;;;46.90;;
43150;SDS011;28755;51.478;5.702;2024-02-28T05:47:15;121.20;;;45.63;;
43150;SDS011;28755;51.478;5.702;2024-02-28T05:49:41;104.93;;;45.35;;
43150;SDS011;28755;51.478;5.702;2024-02-28T05:52:06;116.90;;;46.88;;
43150;SDS011;28755;51.478;5.702;2024-02-28T05:54:32;110.40;;;47.20;;
43150;SDS011;28755;51.478;5.702;2024-02-28T05:56:59;111.10;;;46.10;;
43150;SDS011;28755;51.478;5.702;2024-02-28T05:59:25;106.68;;;44.50;;
43150;SDS011;28755;51.478;5.702;2024-02-28T06:01:51;114.50;;;46.15;;
43150;SDS011;28755;51.478;5.702;2024-02-28T06:04:17;105.93;;;44.53;;
43150;SDS011;28755;51.478;5.702;2024-02-28T06:06:42;101.80;;;44.10;;
43150;SDS011;28755;51.478;5.702;2024-02-28T06:09:08;103.78;;;44.33;;
43150;SDS011;28755;51.478;5.702;2024-02-28T06:11:34;105.30;;;43.85;;
43150;SDS011;28755;51.478;5.702;2024-02-28T06:13:59;99.07;;;43.72;;
43150;SDS011;28755;51.478;5.702;2024-02-28T06:16:25;93.55;;;42.70;;
43150;SDS011;28755;51.478;5.702;2024-02-28T06:18:50;105.20;;;43.95;;
43150;SDS011;28755;51.478;5.702;2024-02-28T06:21:16;98.95;;;44.33;;
43150;SDS011;28755;51.478;5.702;2024-02-28T06:23:41;97.78;;;41.97;;
43150;SDS011;28755;51.478;5.702;2024-02-28T06:26:07;90.13;;;42.17;;
43150;SDS011;28755;51.478;5.702;2024-02-28T06:28:39;87.93;;;40.90;;
43150;SDS011;28755;51.478;5.702;2024-02-28T06:31:11;86.78;;;41.55;;
43150;SDS011;28755;51.478;5.702;2024-02-28T06:33:38;87.93;;;41.22;;
43150;SDS011;28755;51.478;5.702;2024-02-28T06:36:04;85.22;;;40.25;;
43150;SDS011;28755;51.478;5.702;2024-02-28T06:38:30;85.10;;;41.42;;
43150;SDS011;28755;51.478;5.702;2024-02-28T06:40:55;85.97;;;40.88;;
43150;SDS011;28755;51.478;5.702;2024-02-28T06:43:21;86.57;;;41.38;;
43150;SDS011;28755;51.478;5.702;2024-02-28T06:45:46;89.03;;;40.88;;
43150;SDS011;28755;51.478;5.702;2024-02-28T06:48:12;86.10;;;40.72;;
43150;SDS011;28755;51.478;5.702;2024-02-28T06:50:38;86.80;;;41.78;;
43150;SDS011;28755;51.478;5.702;2024-02-28T06:53:03;86.68;;;40.70;;
43150;SDS011;28755;51.478;5.702;2024-02-28T06:55:29;91.93;;;41.78;;
43150;SDS011;28755;51.478;5.702;2024-02-28T06:57:54;84.28;;;42.38;;
43150;SDS011;28755;51.478;5.702;2024-02-28T07:00:21;87.53;;;41.38;;
43150;SDS011;28755;51.478;5.702;2024-02-28T07:02:47;89.03;;;40.83;;
43150;SDS011;28755;51.478;5.702;2024-02-28T07:05:13;88.20;;;41.67;;
43150;SDS011;28755;51.478;5.702;2024-02-28T07:07:38;80.03;;;41.05;;
43150;SDS011;28755;51.478;5.702;2024-02-28T07:10:04;91.95;;;42.45;;
43150;SDS011;28755;51.478;5.702;2024-02-28T07:12:30;89.45;;;42.35;;
43150;SDS011;28755;51.478;5.702;2024-02-28T07:14:56;86.18;;;41.80;;
43150;SDS011;28755;51.478;5.702;2024-02-28T07:17:22;93.57;;;43.45;;
43150;SDS011;28755;51.478;5.702;2024-02-28T07:19:47;92.47;;;43.70;;
43150;SDS011;28755;51.478;5.702;2024-02-28T07:22:13;90.50;;;42.28;;
43150;SDS011;28755;51.478;5.702;2024-02-28T07:24:39;93.90;;;44.03;;
43150;SDS011;28755;51.478;5.702;2024-02-28T07:27:04;88.72;;;41.38;;
43150;SDS011;28755;51.478;5.702;2024-02-28T07:29:30;81.25;;;40.92;;
43150;SDS011;28755;51.478;5.702;2024-02-28T07:31:56;85.75;;;41.42;;
43150;SDS011;28755;51.478;5.702;2024-02-28T07:34:21;78.40;;;40.75;;
43150;SDS011;28755;51.478;5.702;2024-02-28T07:36:47;82.07;;;40.33;;
43150;SDS011;28755;51.478;5.702;2024-02-28T07:39:13;80.53;;;39.55;;
43150;SDS011;28755;51.478;5.702;2024-02-28T07:41:39;76.82;;;39.13;;
43150;SDS011;28755;51.478;5.702;2024-02-28T07:44:06;79.45;;;39.60;;
43150;SDS011;28755;51.478;5.702;2024-02-28T07:46:32;79.38;;;39.75;;
43150;SDS011;28755;51.478;5.702;2024-02-28T07:48:58;80.80;;;39.75;;
43150;SDS011;28755;51.478;5.702;2024-02-28T07:51:25;74.10;;;39.65;;
43150;SDS011;28755;51.478;5.702;2024-02-28T07:53:51;76.25;;;39.30;;
43150;SDS011;28755;51.478;5.702;2024-02-28T07:56:17;76.95;;;38.80;;
43150;SDS011;28755;51.478;5.702;2024-02-28T07:58:44;76.88;;;39.40;;
43150;SDS011;28755;51.478;5.702;2024-02-28T08:01:10;77.07;;;39.15;;
43150;SDS011;28755;51.478;5.702;2024-02-28T08:03:36;76.30;;;38.00;;
43150;SDS011;28755;51.478;5.702;2024-02-28T08:06:01;78.07;;;39.83;;
43150;SDS011;28755;51.478;5.702;2024-02-28T08:08:27;79.97;;;38.60;;
43150;SDS011;28755;51.478;5.702;2024-02-28T08:10:53;73.32;;;37.30;;
43150;SDS011;28755;51.478;5.702;2024-02-28T08:13:19;72.78;;;37.22;;
43150;SDS011;28755;51.478;5.702;2024-02-28T08:15:45;75.47;;;37.35;;
43150;SDS011;28755;51.478;5.702;2024-02-28T08:18:11;68.72;;;36.47;;
43150;SDS011;28755;51.478;5.702;2024-02-28T08:20:37;72.63;;;37.58;;
43150;SDS011;28755;51.478;5.702;2024-02-28T08:23:03;70.85;;;35.75;;
43150;SDS011;28755;51.478;5.702;2024-02-28T08:25:29;74.82;;;36.38;;
43150;SDS011;28755;51.478;5.702;2024-02-28T08:27:55;73.57;;;37.20;;
43150;SDS011;28755;51.478;5.702;2024-02-28T08:30:21;66.05;;;34.72;;
43150;SDS011;28755;51.478;5.702;2024-02-28T08:32:47;67.35;;;36.13;;
43150;SDS011;28755;51.478;5.702;2024-02-28T08:35:12;63.97;;;34.83;;
43150;SDS011;28755;51.478;5.702;2024-02-28T08:37:38;62.50;;;33.90;;
43150;SDS011;28755;51.478;5.702;2024-02-28T08:40:04;61.38;;;34.50;;
43150;SDS011;28755;51.478;5.702;2024-02-28T08:42:30;55.45;;;33.03;;
43150;SDS011;28755;51.478;5.702;2024-02-28T08:44:56;64.63;;;34.03;;
43150;SDS011;28755;51.478;5.702;2024-02-28T08:47:25;57.38;;;33.20;;
43150;SDS011;28755;51.478;5.702;2024-02-28T08:49:51;54.88;;;32.08;;
43150;SDS011;28755;51.478;5.702;2024-02-28T08:52:20;52.03;;;30.88;;
43150;SDS011;28755;51.478;5.702;2024-02-28T08:54:46;48.95;;;28.45;;
43150;SDS011;28755;51.478;5.702;2024-02-28T08:57:12;49.47;;;28.40;;
43150;SDS011;28755;51.478;5.702;2024-02-28T08:59:38;52.53;;;28.25;;
43150;SDS011;28755;51.478;5.702;2024-02-28T09:02:05;44.75;;;26.52;;
43150;SDS011;28755;51.478;5.702;2024-02-28T09:04:31;39.63;;;24.50;;
43150;SDS011;28755;51.478;5.702;2024-02-28T09:06:57;38.85;;;23.98;;
43150;SDS011;28755;51.478;5.702;2024-02-28T09:09:22;35.85;;;21.73;;
43150;SDS011;28755;51.478;5.702;2024-02-28T09:11:48;33.95;;;22.00;;
43150;SDS011;28755;51.478;5.702;2024-02-28T09:14:13;34.55;;;21.25;;
43150;SDS011;28755;51.478;5.702;2024-02-28T09:16:39;30.33;;;19.98;;
43150;SDS011;28755;51.478;5.702;2024-02-28T09:19:05;35.72;;;22.20;;
43150;SDS011;28755;51.478;5.702;2024-02-28T09:21:30;28.23;;;19.77;;
43150;SDS011;28755;51.478;5.702;2024-02-28T09:23:56;31.60;;;20.83;;
43150;SDS011;28755;51.478;5.702;2024-02-28T09:26:22;32.85;;;20.63;;
43150;SDS011;28755;51.478;5.702;2024-02-28T09:28:48;33.70;;;19.20;;
43150;SDS011;28755;51.478;5.702;2024-02-28T09:31:13;34.72;;;19.40;;
43150;SDS011;28755;51.478;5.702;2024-02-28T09:33:40;28.60;;;18.77;;
43150;SDS011;28755;51.478;5.702;2024-02-28T09:36:06;27.42;;;18.40;;
43150;SDS011;28755;51.478;5.702;2024-02-28T09:38:32;27.60;;;19.13;;
43150;SDS011;28755;51.478;5.702;2024-02-28T09:40:59;28.58;;;18.05;;
43150;SDS011;28755;51.478;5.702;2024-02-28T09:43:29;31.77;;;19.10;;
43150;SDS011;28755;51.478;5.702;2024-02-28T09:45:59;27.05;;;18.40;;
43150;SDS011;28755;51.478;5.702;2024-02-28T09:48:28;28.67;;;18.77;;
43150;SDS011;28755;51.478;5.702;2024-02-28T09:50:55;34.63;;;19.42;;
43150;SDS011;28755;51.478;5.702;2024-02-28T09:53:25;27.15;;;18.85;;
43150;SDS011;28755;51.478;5.702;2024-02-28T09:55:52;37.05;;;20.08;;
43150;SDS011;28755;51.478;5.702;2024-02-28T09:58:18;30.85;;;19.48;;
43150;SDS011;28755;51.478;5.702;2024-02-28T10:00:46;33.10;;;20.48;;
43150;SDS011;28755;51.478;5.702;2024-02-28T10:03:13;30.77;;;19.98;;
43150;SDS011;28755;51.478;5.702;2024-02-28T10:05:42;36.30;;;20.42;;
43150;SDS011;28755;51.478;5.702;2024-02-28T10:08:08;36.25;;;20.98;;
43150;SDS011;28755;51.478;5.702;2024-02-28T10:10:36;31.65;;;19.77;;
43150;SDS011;28755;51.478;5.702;2024-02-28T10:13:03;33.80;;;20.60;;
43150;SDS011;28755;51.478;5.702;2024-02-28T10:15:29;28.23;;;18.73;;
43150;SDS011;28755;51.478;5.702;2024-02-28T10:17:55;28.05;;;19.48;;
43150;SDS011;28755;51.478;5.702;2024-02-28T10:20:21;31.25;;;19.85;;
43150;SDS011;28755;51.478;5.702;2024-02-28T10:22:46;33.42;;;19.75;;
43150;SDS011;28755;51.478;5.702;2024-02-28T10:25:12;29.13;;;19.42;;
43150;SDS011;28755;51.478;5.702;2024-02-28T10:27:38;33.10;;;20.00;;
43150;SDS011;28755;51.478;5.702;2024-02-28T10:30:06;29.20;;;19.13;;
43150;SDS011;28755;51.478;5.702;2024-02-28T10:32:32;30.90;;;19.75;;
43150;SDS011;28755;51.478;5.702;2024-02-28T10:35:00;31.40;;;18.65;;
43150;SDS011;28755;51.478;5.702;2024-02-28T10:37:26;30.85;;;18.77;;
43150;SDS011;28755;51.478;5.702;2024-02-28T10:39:57;32.97;;;19.05;;
43150;SDS011;28755;51.478;5.702;2024-02-28T10:42:25;29.00;;;18.45;;
43150;SDS011;28755;51.478;5.702;2024-02-28T10:44:51;27.38;;;18.08;;
43150;SDS011;28755;51.478;5.702;2024-02-28T10:47:20;27.17;;;17.13;;
43150;SDS011;28755;51.478;5.702;2024-02-28T10:49:46;27.17;;;17.17;;
43150;SDS011;28755;51.478;5.702;2024-02-28T10:52:12;26.83;;;17.90;;
43150;SDS011;28755;51.478;5.702;2024-02-28T10:54:39;29.85;;;16.92;;
43150;SDS011;28755;51.478;5.702;2024-02-28T10:57:07;25.90;;;16.35;;
43150;SDS011;28755;51.478;5.702;2024-02-28T10:59:33;27.55;;;17.48;;
43150;SDS011;28755;51.478;5.702;2024-02-28T11:02:01;32.00;;;17.15;;
43150;SDS011;28755;51.478;5.702;2024-02-28T11:04:28;33.30;;;19.00;;
43150;SDS011;28755;51.478;5.702;2024-02-28T11:06:55;37.85;;;19.10;;
43150;SDS011;28755;51.478;5.702;2024-02-28T11:09:24;29.60;;;18.38;;
43150;SDS011;28755;51.478;5.702;2024-02-28T11:11:53;28.80;;;18.55;;
43150;SDS011;28755;51.478;5.702;2024-02-28T11:14:20;34.42;;;20.55;;
43150;SDS011;28755;51.478;5.702;2024-02-28T11:16:47;35.90;;;19.75;;
43150;SDS011;28755;51.478;5.702;2024-02-28T11:19:24;28.58;;;17.38;;
43150;SDS011;28755;51.478;5.702;2024-02-28T11:21:55;33.90;;;19.83;;
43150;SDS011;28755;51.478;5.702;2024-02-28T11:24:25;33.58;;;18.88;;
43150;SDS011;28755;51.478;5.702;2024-02-28T11:26:57;34.65;;;20.45;;
43150;SDS011;28755;51.478;5.702;2024-02-28T11:29:27;35.25;;;20.52;;
43150;SDS011;28755;51.478;5.702;2024-02-28T11:31:56;36.08;;;19.60;;
43150;SDS011;28755;51.478;5.702;2024-02-28T11:34:21;37.78;;;20.52;;
43150;SDS011;28755;51.478;5.702;2024-02-28T11:36:48;38.72;;;21.77;;
43150;SDS011;28755;51.478;5.702;2024-02-28T11:39:14;37.63;;;21.58;;
43150;SDS011;28755;51.478;5.702;2024-02-28T11:41:40;36.63;;;21.60;;
43150;SDS011;28755;51.478;5.702;2024-02-28T11:44:06;37.75;;;21.55;;
43150;SDS011;28755;51.478;5.702;2024-02-28T11:46:32;43.60;;;21.98;;
43150;SDS011;28755;51.478;5.702;2024-02-28T11:48:58;39.67;;;22.25;;
43150;SDS011;28755;51.478;5.702;2024-02-28T11:51:25;42.85;;;22.52;;
43150;SDS011;28755;51.478;5.702;2024-02-28T11:53:51;43.10;;;22.35;;
43150;SDS011;28755;51.478;5.702;2024-02-28T11:56:16;38.67;;;20.38;;
43150;SDS011;28755;51.478;5.702;2024-02-28T11:58:55;40.57;;;20.67;;
43150;SDS011;28755;51.478;5.702;2024-02-28T12:01:35;39.60;;;20.35;;
43150;SDS011;28755;51.478;5.702;2024-02-28T12:04:05;33.45;;;19.27;;
43150;SDS011;28755;51.478;5.702;2024-02-28T12:06:36;31.17;;;17.98;;
43150;SDS011;28755;51.478;5.702;2024-02-28T12:09:06;38.50;;;19.55;;
43150;SDS011;28755;51.478;5.702;2024-02-28T12:11:33;32.42;;;17.40;;
43150;SDS011;28755;51.478;5.702;2024-02-28T12:14:02;34.80;;;18.88;;
43150;SDS011;28755;51.478;5.702;2024-02-28T12:16:29;29.80;;;17.20;;
43150;SDS011;28755;51.478;5.702;2024-02-28T12:18:55;36.10;;;19.75;;
43150;SDS011;28755;51.478;5.702;2024-02-28T12:21:21;37.42;;;18.58;;
43150;SDS011;28755;51.478;5.702;2024-02-28T12:23:47;38.33;;;20.38;;
43150;SDS011;28755;51.478;5.702;2024-02-28T12:26:14;34.80;;;20.38;;
43150;SDS011;28755;51.478;5.702;2024-02-28T12:28:41;42.67;;;20.40;;
43150;SDS011;28755;51.478;5.702;2024-02-28T12:31:07;42.53;;;20.63;;
43150;SDS011;28755;51.478;5.702;2024-02-28T12:33:33;41.85;;;22.05;;
43150;SDS011;28755;51.478;5.702;2024-02-28T12:35:59;41.13;;;21.20;;
43150;SDS011;28755;51.478;5.702;2024-02-28T12:38:28;37.88;;;19.33;;
43150;SDS011;28755;51.478;5.702;2024-02-28T12:40:54;44.78;;;20.88;;
43150;SDS011;28755;51.478;5.702;2024-02-28T12:43:19;36.05;;;19.55;;
43150;SDS011;28755;51.478;5.702;2024-02-28T12:45:45;35.63;;;18.95;;
43150;SDS011;28755;51.478;5.702;2024-02-28T12:48:11;38.50;;;20.95;;
43150;SDS011;28755;51.478;5.702;2024-02-28T12:50:36;40.70;;;19.67;;
43150;SDS011;28755;51.478;5.702;2024-02-28T12:53:02;38.33;;;19.55;;
43150;SDS011;28755;51.478;5.702;2024-02-28T12:55:28;37.63;;;19.38;;
43150;SDS011;28755;51.478;5.702;2024-02-28T12:57:54;38.05;;;19.80;;
43150;SDS011;28755;51.478;5.702;2024-02-28T13:00:20;42.47;;;19.95;;
43150;SDS011;28755;51.478;5.702;2024-02-28T13:02:46;36.10;;;19.45;;
43150;SDS011;28755;51.478;5.702;2024-02-28T13:05:12;39.38;;;20.15;;
43150;SDS011;28755;51.478;5.702;2024-02-28T13:07:40;34.20;;;16.52;;
43150;SDS011;28755;51.478;5.702;2024-02-28T13:10:06;36.08;;;16.38;;
43150;SDS011;28755;51.478;5.702;2024-02-28T13:12:34;31.70;;;16.10;;
43150;SDS011;28755;51.478;5.702;2024-02-28T13:14:59;26.70;;;14.60;;
43150;SDS011;28755;51.478;5.702;2024-02-28T13:17:25;33.20;;;14.40;;
43150;SDS011;28755;51.478;5.702;2024-02-28T13:19:51;29.88;;;15.10;;
43150;SDS011;28755;51.478;5.702;2024-02-28T13:22:16;28.67;;;13.93;;
43150;SDS011;28755;51.478;5.702;2024-02-28T13:24:42;25.67;;;14.10;;
43150;SDS011;28755;51.478;5.702;2024-02-28T13:27:08;28.17;;;14.43;;
43150;SDS011;28755;51.478;5.702;2024-02-28T13:29:34;28.38;;;15.00;;
43150;SDS011;28755;51.478;5.702;2024-02-28T13:32:00;24.42;;;13.68;;
43150;SDS011;28755;51.478;5.702;2024-02-28T13:34:26;28.30;;;14.63;;
43150;SDS011;28755;51.478;5.702;2024-02-28T13:36:52;26.50;;;14.88;;
43150;SDS011;28755;51.478;5.702;2024-02-28T13:39:18;25.40;;;14.60;;
43150;SDS011;28755;51.478;5.702;2024-02-28T13:41:43;30.73;;;15.50;;
43150;SDS011;28755;51.478;5.702;2024-02-28T13:44:09;27.00;;;14.68;;
43150;SDS011;28755;51.478;5.702;2024-02-28T13:46:35;23.83;;;14.02;;
43150;SDS011;28755;51.478;5.702;2024-02-28T13:49:02;26.33;;;14.50;;
43150;SDS011;28755;51.478;5.702;2024-02-28T13:51:29;26.80;;;13.75;;
43150;SDS011;28755;51.478;5.702;2024-02-28T13:53:55;25.30;;;14.10;;
43150;SDS011;28755;51.478;5.702;2024-02-28T13:56:20;25.48;;;12.63;;
43150;SDS011;28755;51.478;5.702;2024-02-28T13:58:46;23.95;;;12.57;;
43150;SDS011;28755;51.478;5.702;2024-02-28T14:01:12;27.15;;;14.80;;
43150;SDS011;28755;51.478;5.702;2024-02-28T14:03:37;23.95;;;13.43;;
43150;SDS011;28755;51.478;5.702;2024-02-28T14:06:03;26.85;;;12.75;;
43150;SDS011;28755;51.478;5.702;2024-02-28T14:08:29;23.23;;;12.77;;
43150;SDS011;28755;51.478;5.702;2024-02-28T14:10:55;22.67;;;13.07;;
43150;SDS011;28755;51.478;5.702;2024-02-28T14:13:21;25.73;;;12.30;;